Time;durP1;ratioP1;P1;durP2;ratioP2;P2;SDS_P1;SDS_P2;PMS_P1;PMS_P2;Temp;Humidity;BMP_temperature;BMP_pressure;BME280_temperature;BME280_humidity;BME280_pressure;Samples;Min_cycle;Max_cycle;Signal;HPM_P1;HPM_P2
2022/12/11 00:01:09;;;;;;;4.90;3.00;;;;;;;11.03;86.63;98113.09;4994374;28;19976;-78
2022/12/11 00:03:37;;;;;;;7.97;3.55;;;;;;;11.03;86.72;98092.59;4994957;28;20046;-79
2022/12/11 00:06:07;;;;;;;5.63;3.47;;;;;;;11.03;86.63;98097.09;4995200;28;20125;-78
2022/12/11 00:08:37;;;;;;;5.22;3.20;;;;;;;11.02;86.63;98100.75;4994580;28;20060;-78
2022/12/11 00:11:08;;;;;;;6.28;3.53;;;;;;;11.00;86.83;98092.03;4994539;28;20486;-78
2022/12/11 00:13:36;;;;;;;6.32;3.58;;;;;;;10.98;86.66;98080.69;4994296;28;20065;-78
2022/12/11 00:16:04;;;;;;;5.50;3.15;;;;;;;10.99;86.65;98085.84;4994180;28;20045;-78
2022/12/11 00:18:34;;;;;;;5.90;3.53;;;;;;;10.98;86.70;98088.69;4994102;28;20477;-78
2022/12/11 00:21:04;;;;;;;6.70;3.60;;;;;;;10.98;86.59;98083.34;4994316;28;20045;-79
2022/12/11 00:23:34;;;;;;;7.07;3.55;;;;;;;10.97;86.35;98076.31;4994339;28;20453;-78
2022/12/11 00:26:08;;;;;;;5.45;3.22;;;;;;;10.96;86.36;98080.81;4977204;28;20054;-76
2022/12/11 00:28:36;;;;;;;7.00;3.90;;;;;;;10.96;86.39;98077.31;4994346;28;20057;-78
2022/12/11 00:31:05;;;;;;;5.97;3.20;;;;;;;10.93;86.41;98069.63;4994998;28;20046;-77
2022/12/11 00:33:33;;;;;;;6.15;3.47;;;;;;;10.93;86.51;98080.28;4994567;28;20112;-78
2022/12/11 00:36:02;;;;;;;5.57;3.22;;;;;;;10.92;86.53;98086.63;4994097;28;20053;-79
2022/12/11 00:38:30;;;;;;;6.72;3.28;;;;;;;10.91;86.33;98082.28;4994316;28;20448;-77
2022/12/11 00:40:59;;;;;;;6.40;3.55;;;;;;;10.92;86.29;98078.63;4994006;28;20097;-78
2022/12/11 00:43:29;;;;;;;6.30;3.53;;;;;;;10.90;86.15;98073.41;4976745;28;20050;-79
2022/12/11 00:45:58;;;;;;;6.07;3.30;;;;;;;10.88;86.24;98075.38;4994132;28;20096;-78
2022/12/11 00:48:26;;;;;;;5.93;3.33;;;;;;;10.86;86.53;98067.53;4993969;28;20078;-78
2022/12/11 00:50:54;;;;;;;6.93;3.40;;;;;;;10.85;86.24;98073.03;4995552;28;20133;-78
2022/12/11 00:53:22;;;;;;;6.60;3.70;;;;;;;10.85;86.16;98076.53;4998253;28;20047;-77
2022/12/11 00:55:50;;;;;;;6.00;3.40;;;;;;;10.84;86.33;98077.50;4998398;28;20077;-77
2022/12/11 00:58:18;;;;;;;6.20;3.30;;;;;;;10.84;86.32;98082.84;4998346;28;20060;-78
2022/12/11 01:00:48;;;;;;;5.55;3.63;;;;;;;10.82;86.04;98076.81;4998141;28;20074;-79
2022/12/11 01:03:17;;;;;;;6.07;3.65;;;;;;;10.81;86.28;98082.31;4997867;28;20493;-79
2022/12/11 01:05:53;;;;;;;6.32;3.50;;;;;;;10.81;86.24;98079.66;4997659;28;20130;-79
2022/12/11 01:08:24;;;;;;;5.72;3.40;;;;;;;10.80;85.98;98069.94;4997883;28;20438;-79
2022/12/11 01:11:00;;;;;;;6.18;4.18;;;;;;;10.81;85.77;98072.47;4997391;28;20046;-78
2022/12/11 01:13:28;;;;;;;5.13;2.95;;;;;;;10.80;85.92;98077.94;4997794;28;20445;-78
2022/12/11 01:15:58;;;;;;;5.85;3.70;;;;;;;10.80;85.69;98081.44;4980035;28;20077;-78
2022/12/11 01:18:27;;;;;;;6.38;3.40;;;;;;;10.79;85.67;98087.75;4997104;28;20556;-79
2022/12/11 01:20:55;;;;;;;5.75;3.53;;;;;;;10.77;85.62;98089.75;4997439;28;20051;-79
2022/12/11 01:23:23;;;;;;;6.45;3.83;;;;;;;10.75;85.61;98094.38;4997467;28;20042;-79
2022/12/11 01:25:51;;;;;;;6.57;3.80;;;;;;;10.73;85.50;98096.38;4997398;28;20074;-78
2022/12/11 01:28:19;;;;;;;6.13;3.58;;;;;;;10.72;85.38;98086.69;4997205;28;20497;-80
2022/12/11 01:30:48;;;;;;;6.85;3.35;;;;;;;10.71;85.46;98093.00;4997328;28;20096;-79
2022/12/11 01:33:17;;;;;;;6.65;4.05;;;;;;;10.70;85.48;98085.97;4997525;28;20066;-78
2022/12/11 01:35:45;;;;;;;5.78;3.67;;;;;;;10.69;85.29;98105.63;4997673;28;20409;-78
2022/12/11 01:38:13;;;;;;;6.80;3.70;;;;;;;10.67;85.11;98107.59;4997370;28;20042;-78
2022/12/11 01:40:46;;;;;;;7.07;3.90;;;;;;;10.67;85.09;98099.59;4996913;28;20054;-77
2022/12/11 01:43:20;;;;;;;7.05;3.70;;;;;;;10.65;85.16;98085.59;4996860;28;20053;-76
2022/12/11 01:45:49;;;;;;;6.07;3.50;;;;;;;10.63;84.97;98095.56;4996850;28;20042;-78
2022/12/11 01:48:25;;;;;;;5.38;3.40;;;;;;;10.62;85.07;98088.56;4996889;28;20543;-76
2022/12/11 01:50:56;;;;;;;7.00;3.93;;;;;;;10.60;85.00;98093.16;4979877;28;20050;-78
2022/12/11 01:53:29;;;;;;;6.03;3.53;;;;;;;10.60;84.83;98111.81;4996958;28;20042;-77
2022/12/11 01:55:59;;;;;;;5.82;3.33;;;;;;;10.57;84.90;98102.28;4997086;28;20055;-77
2022/12/11 01:58:31;;;;;;;7.45;3.60;;;;;;;10.56;84.78;98108.63;4996744;28;20045;-78
2022/12/11 02:01:01;;;;;;;6.78;3.92;;;;;;;10.55;84.92;98119.44;4997026;28;20046;-77
2022/12/11 02:03:30;;;;;;;6.03;3.55;;;;;;;10.54;84.69;98118.59;4996965;28;20050;-77
2022/12/11 02:05:59;;;;;;;6.38;3.78;;;;;;;10.53;84.55;98110.75;4996506;28;20051;-78
2022/12/11 02:08:27;;;;;;;6.28;3.80;;;;;;;10.51;84.53;98118.00;4996395;28;20053;-78
2022/12/11 02:11:06;;;;;;;5.95;3.55;;;;;;;10.50;84.32;98116.34;4996367;28;20050;-78
2022/12/11 02:13:42;;;;;;;6.60;3.65;;;;;;;10.47;84.58;98114.81;4996357;28;20042;-79
2022/12/11 02:16:19;;;;;;;5.13;3.45;;;;;;;10.46;84.32;98099.81;4996836;28;20057;-78
2022/12/11 02:18:55;;;;;;;6.78;3.30;;;;;;;10.45;84.19;98102.63;4996192;28;20092;-80
2022/12/11 02:21:27;;;;;;;6.13;3.50;;;;;;;10.43;84.31;98120.59;4996498;28;20117;-79
2022/12/11 02:24:11;;;;;;;6.00;3.60;;;;;;;10.40;84.21;98116.34;4996911;28;20100;-78
2022/12/11 02:27:10;;;;;;;6.10;3.30;;;;;;;10.39;84.55;98113.84;4996218;28;20046;-77
2022/12/11 02:29:49;;;;;;;5.97;3.60;;;;;;;10.37;84.37;98115.81;4996721;28;20050;-78
2022/12/11 02:32:22;;;;;;;6.55;3.60;;;;;;;10.36;84.53;98106.13;4996324;28;20050;-78
2022/12/11 02:34:58;;;;;;;5.75;3.33;;;;;;;10.34;84.54;98102.78;4996501;28;20117;-79
2022/12/11 02:37:29;;;;;;;5.78;3.47;;;;;;;10.34;84.36;98116.94;4996649;28;20046;-78
2022/12/11 02:39:58;;;;;;;7.05;3.70;;;;;;;10.31;84.33;98102.06;4978166;28;20050;-78
2022/12/11 02:42:32;;;;;;;6.28;3.67;;;;;;;10.30;84.22;98100.38;4996148;28;20058;-78
2022/12/11 02:45:03;;;;;;;5.47;3.08;;;;;;;10.29;84.30;98112.03;4996144;28;20054;-78
2022/12/11 02:47:33;;;;;;;4.30;2.90;;;;;;;10.28;84.32;98099.69;4995778;28;20039;-78
2022/12/11 02:50:08;;;;;;;5.47;3.53;;;;;;;10.28;84.32;98097.03;4996006;28;20042;-78
2022/12/11 02:52:37;;;;;;;6.07;3.72;;;;;;;10.25;84.31;98100.00;4978516;28;20082;-78
2022/12/11 02:55:08;;;;;;;5.68;3.33;;;;;;;10.27;84.31;98094.50;4995739;28;20378;-78
2022/12/11 02:57:49;;;;;;;5.47;3.13;;;;;;;10.24;84.48;98089.47;4996112;28;20056;-77
2022/12/11 03:00:20;;;;;;;5.03;3.00;;;;;;;10.24;84.27;98089.47;4996196;28;20145;-77
2022/12/11 03:02:48;;;;;;;4.85;2.90;;;;;;;10.19;84.24;98095.19;4995641;28;20093;-79
2022/12/11 03:05:16;;;;;;;5.38;3.42;;;;;;;10.19;84.23;98097.00;4995709;28;20057;-78
2022/12/11 03:07:45;;;;;;;7.35;3.20;;;;;;;10.19;84.48;98097.84;4995565;28;20046;-79
2022/12/11 03:10:17;;;;;;;5.30;3.10;;;;;;;10.19;84.47;98099.66;4996363;28;20046;-80
2022/12/11 03:12:48;;;;;;;5.13;2.88;;;;;;;10.18;84.13;98085.50;4995605;28;20047;-76
2022/12/11 03:15:29;;;;;;;4.75;2.75;;;;;;;10.15;84.36;98074.31;4995594;28;20053;-76
2022/12/11 03:18:03;;;;;;;5.35;2.78;;;;;;;10.13;84.20;98079.75;4995422;28;20051;-76
2022/12/11 03:20:38;;;;;;;4.93;2.80;;;;;;;10.13;84.26;98087.75;4995861;28;20054;-78
2022/12/11 03:23:18;;;;;;;4.78;2.90;;;;;;;10.12;83.92;98083.41;4978004;28;20050;-76
2022/12/11 03:25:53;;;;;;;5.00;2.83;;;;;;;10.11;84.16;98083.56;4995441;28;20043;-76
2022/12/11 03:28:27;;;;;;;4.93;3.10;;;;;;;10.10;84.08;98084.53;4995434;28;20421;-77
2022/12/11 03:30:58;;;;;;;5.53;3.10;;;;;;;10.08;83.97;98089.19;4995297;28;20081;-78
2022/12/11 03:33:33;;;;;;;4.43;2.80;;;;;;;10.06;84.27;98086.66;4977643;28;20054;-78
2022/12/11 03:36:06;;;;;;;4.70;2.90;;;;;;;10.04;84.15;98078.81;4995072;28;20050;-78
2022/12/11 03:38:39;;;;;;;4.60;2.67;;;;;;;10.02;84.09;98085.25;4995053;28;20085;-78
2022/12/11 03:41:08;;;;;;;5.13;2.83;;;;;;;10.03;83.92;98093.09;4994879;28;20302;-78
2022/12/11 03:43:38;;;;;;;4.55;2.75;;;;;;;10.03;84.17;98076.25;4994900;28;20046;-78
2022/12/11 03:46:11;;;;;;;4.85;2.67;;;;;;;10.01;84.14;98083.56;4995273;28;20054;-78
2022/12/11 03:48:42;;;;;;;4.65;2.50;;;;;;;9.98;83.89;98087.34;4995361;28;20057;-78
2022/12/11 03:51:11;;;;;;;5.05;2.60;;;;;;;9.99;84.06;98102.34;4995312;28;20042;-78
2022/12/11 03:53:39;;;;;;;4.13;2.63;;;;;;;9.94;83.81;98082.44;4994645;28;20050;-79
2022/12/11 03:56:10;;;;;;;4.63;2.40;;;;;;;9.97;83.76;98083.00;4994329;28;20055;-78
2022/12/11 03:58:52;;;;;;;4.40;2.50;;;;;;;9.95;83.79;98076.16;4994901;28;20408;-78
2022/12/11 04:01:21;;;;;;;4.78;2.70;;;;;;;9.95;83.60;98081.47;4994645;28;20413;-78
2022/12/11 04:03:49;;;;;;;4.43;2.30;;;;;;;9.94;83.81;98087.75;4977200;28;20051;-78
2022/12/11 04:06:18;;;;;;;5.22;2.65;;;;;;;9.93;83.71;98094.06;4994341;28;20042;-78
2022/12/11 04:08:46;;;;;;;4.57;2.60;;;;;;;9.92;83.46;98087.91;4977531;28;20057;-78
2022/12/11 04:16:47;;;;;;;4.05;2.22;;;;;;;9.86;83.56;98104.47;4977514;28;20054;-79
2022/12/11 04:24:49;;;;;;;4.82;2.40;;;;;;;9.83;83.41;98099.41;4994756;28;20046;-77
2022/12/11 04:27:47;;;;;;;4.47;2.30;;;;;;;9.82;83.46;98107.53;4994456;28;20057;-79
2022/12/11 04:30:09;;;;;;;3.30;1.88;;;;;;;9.81;83.39;98119.16;4994551;28;20050;-78
2022/12/11 04:32:38;;;;;;;4.00;2.30;;;;;;;9.80;83.23;98117.47;4994365;28;20050;-77
2022/12/11 04:35:08;;;;;;;3.17;2.10;;;;;;;9.79;83.08;98116.66;4993924;28;20038;-77
2022/12/11 04:37:37;;;;;;;3.55;2.00;;;;;;;9.76;83.20;98124.91;4994478;28;20050;-77
2022/12/11 04:40:08;;;;;;;3.95;2.10;;;;;;;9.78;83.17;98119.44;4993482;28;20074;-77
2022/12/11 04:42:36;;;;;;;3.13;1.83;;;;;;;9.77;83.13;98133.75;4994656;28;20116;-79
2022/12/11 04:45:06;;;;;;;3.78;2.08;;;;;;;9.74;83.20;98127.69;4994188;28;20046;-78
2022/12/11 04:47:35;;;;;;;2.95;1.85;;;;;;;9.75;83.00;98136.56;4993970;28;20141;-78
2022/12/11 04:50:07;;;;;;;3.75;1.88;;;;;;;9.74;82.87;98149.00;4993741;28;20054;-78
2022/12/11 04:52:35;;;;;;;3.22;1.73;;;;;;;9.71;83.08;98154.59;4994180;28;20046;-78
2022/12/11 04:55:04;;;;;;;3.88;2.25;;;;;;;9.70;83.05;98155.59;4994019;28;20425;-78
2022/12/11 04:57:32;;;;;;;3.95;2.10;;;;;;;9.68;83.07;98154.88;4993964;28;20051;-78
2022/12/11 05:00:03;;;;;;;4.00;2.28;;;;;;;9.67;83.39;98161.19;4993660;28;20513;-77
2022/12/11 05:02:35;;;;;;;3.53;2.20;;;;;;;9.65;82.89;98152.50;4976886;28;20573;-79
2022/12/11 05:05:08;;;;;;;4.03;2.30;;;;;;;9.67;83.05;98176.31;4994018;28;20126;-78
2022/12/11 05:07:37;;;;;;;3.90;2.00;;;;;;;9.65;82.90;98167.59;4994125;28;20129;-78
2022/12/11 05:10:06;;;;;;;4.13;2.38;;;;;;;9.65;82.85;98183.59;4994655;28;20465;-78
2022/12/11 05:12:34;;;;;;;3.88;2.10;;;;;;;9.61;83.00;98169.72;4993863;28;20051;-79
2022/12/11 05:15:03;;;;;;;3.80;2.28;;;;;;;9.60;83.00;98191.16;4993963;28;20042;-78
2022/12/11 05:17:31;;;;;;;3.65;2.13;;;;;;;9.60;83.01;98181.34;4993955;28;20058;-78
2022/12/11 05:19:59;;;;;;;4.72;2.30;;;;;;;9.60;82.94;98181.34;4993738;28;20050;-79
2022/12/11 05:22:30;;;;;;;3.97;2.28;;;;;;;9.59;82.91;98176.16;4993904;28;20449;-78
2022/12/11 05:24:58;;;;;;;4.32;2.33;;;;;;;9.56;82.97;98184.44;4994099;28;20477;-78
2022/12/11 05:27:27;;;;;;;4.88;2.30;;;;;;;9.56;82.85;98187.94;4993811;28;20050;-78
2022/12/11 05:29:55;;;;;;;3.75;1.90;;;;;;;9.51;82.79;98173.34;4994140;28;20101;-78
2022/12/11 05:32:26;;;;;;;3.70;2.00;;;;;;;9.55;82.77;98186.22;4976386;28;20054;-79
2022/12/11 05:34:54;;;;;;;4.22;2.33;;;;;;;9.53;82.64;98190.84;4993703;28;20042;-78
2022/12/11 05:37:22;;;;;;;3.92;2.47;;;;;;;9.50;82.59;98177.81;4995954;28;20104;-78
2022/12/11 05:39:52;;;;;;;4.20;2.30;;;;;;;9.51;82.53;98184.81;4996671;28;20516;-78
2022/12/11 05:42:20;;;;;;;4.85;2.42;;;;;;;9.51;82.57;98181.31;4997356;28;20054;-78
2022/12/11 05:44:55;;;;;;;4.10;2.33;;;;;;;9.50;82.39;98180.47;4979650;28;20057;-78
2022/12/11 05:47:24;;;;;;;4.15;2.33;;;;;;;9.48;82.40;98187.75;4997040;28;20070;-78
2022/12/11 05:49:52;;;;;;;4.95;2.40;;;;;;;9.46;82.53;98189.72;4997396;28;20054;-78
2022/12/11 05:52:21;;;;;;;4.75;2.30;;;;;;;9.46;82.53;98173.75;4997401;28;20042;-79
2022/12/11 05:54:49;;;;;;;4.00;2.10;;;;;;;9.45;82.46;98167.56;4996644;28;20053;-78
2022/12/11 05:57:18;;;;;;;4.53;2.22;;;;;;;9.45;82.45;98182.69;4996563;28;20043;-79
2022/12/11 05:59:46;;;;;;;3.92;2.17;;;;;;;9.44;82.45;98191.66;4996715;28;20112;-78
2022/12/11 06:02:15;;;;;;;4.15;2.15;;;;;;;9.41;82.49;98187.44;4996788;28;20085;-78
2022/12/11 06:04:43;;;;;;;4.13;2.40;;;;;;;9.42;82.45;98205.09;4997381;28;20081;-79
2022/12/11 06:07:11;;;;;;;3.58;2.30;;;;;;;9.42;82.45;98198.94;4996738;28;20133;-78
2022/12/11 06:09:39;;;;;;;3.75;2.20;;;;;;;9.39;82.32;98199.22;4996955;28;20109;-78
2022/12/11 06:12:07;;;;;;;3.97;2.20;;;;;;;9.40;82.43;98214.19;4996690;28;20042;-78
2022/12/11 06:14:37;;;;;;;4.55;2.33;;;;;;;9.38;82.31;98217.00;4996499;28;20075;-78
2022/12/11 06:17:06;;;;;;;4.18;2.17;;;;;;;9.38;82.36;98234.78;4996813;28;20145;-78
2022/12/11 06:19:34;;;;;;;4.97;2.55;;;;;;;9.39;82.32;98223.16;4996327;28;20050;-77
2022/12/11 06:22:04;;;;;;;4.13;2.20;;;;;;;9.37;82.31;98233.09;4996079;28;20065;-76
2022/12/11 06:24:32;;;;;;;4.30;2.28;;;;;;;9.37;82.45;98239.25;4996316;28;20054;-77
2022/12/11 06:27:00;;;;;;;4.47;2.38;;;;;;;9.35;82.25;98243.84;4996241;28;20046;-78
2022/12/11 06:29:28;;;;;;;3.90;2.10;;;;;;;9.34;82.37;98254.63;4978765;28;20062;-77
2022/12/11 06:31:58;;;;;;;5.20;2.42;;;;;;;9.30;82.43;98264.72;4996631;28;20389;-76
2022/12/11 06:34:27;;;;;;;4.50;2.50;;;;;;;9.31;82.49;98265.56;4996073;28;20081;-77
2022/12/11 06:36:55;;;;;;;4.82;2.30;;;;;;;9.30;82.43;98263.88;4996022;28;20097;-77
2022/12/11 06:39:23;;;;;;;4.28;2.30;;;;;;;9.23;82.35;98260.03;4978690;28;20050;-77
2022/12/11 06:41:51;;;;;;;4.47;2.40;;;;;;;9.28;82.48;98271.16;4995886;28;20062;-77
2022/12/11 06:44:19;;;;;;;4.10;2.30;;;;;;;9.26;82.45;98273.06;4996060;28;20440;-78
2022/12/11 06:46:47;;;;;;;4.22;2.42;;;;;;;9.25;82.46;98276.72;4978587;28;20057;-76
2022/12/11 06:49:16;;;;;;;4.70;2.53;;;;;;;9.24;82.13;98290.97;4994734;28;20050;-76
2022/12/11 06:51:44;;;;;;;5.63;2.65;;;;;;;9.24;82.13;98307.78;4978397;28;20054;-76
2022/12/11 06:54:12;;;;;;;4.60;2.38;;;;;;;9.23;82.09;98295.47;4978422;28;20050;-78
2022/12/11 06:56:40;;;;;;;4.35;2.53;;;;;;;9.22;82.16;98300.91;4996355;28;20050;-76
2022/12/11 06:59:11;;;;;;;3.90;2.40;;;;;;;9.20;82.30;98314.34;4995712;28;20093;-75
2022/12/11 07:01:40;;;;;;;3.58;2.03;;;;;;;9.20;82.32;98316.19;4995685;28;20057;-76
2022/12/11 07:04:09;;;;;;;3.75;2.20;;;;;;;9.19;82.34;98310.00;4978194;28;20046;-77
2022/12/11 07:06:39;;;;;;;3.67;2.20;;;;;;;9.18;82.27;98319.81;4995547;28;20133;-76
2022/12/11 07:09:07;;;;;;;4.15;2.30;;;;;;;9.17;82.28;98318.13;4995683;28;20073;-78
2022/12/11 07:11:35;;;;;;;4.85;2.40;;;;;;;9.17;82.20;98323.44;4995092;28;20501;-78
2022/12/11 07:14:03;;;;;;;4.43;2.35;;;;;;;9.16;82.10;98311.09;4995001;28;20489;-78
2022/12/11 07:16:31;;;;;;;4.15;2.38;;;;;;;9.14;82.23;98313.06;4995459;28;20541;-78
2022/12/11 07:19:00;;;;;;;4.65;2.65;;;;;;;9.15;82.42;98329.84;4995387;28;20054;-77
2022/12/11 07:21:28;;;;;;;4.45;2.50;;;;;;;9.16;82.03;98331.53;4995223;28;20046;-78
2022/12/11 07:23:59;;;;;;;4.75;2.40;;;;;;;9.15;82.12;98328.03;4994985;28;20050;-77
2022/12/11 07:26:27;;;;;;;4.35;2.40;;;;;;;9.16;82.03;98336.84;4995377;28;20073;-78
2022/12/11 07:28:57;;;;;;;5.22;2.50;;;;;;;9.14;82.28;98342.31;4994934;28;20139;-78
2022/12/11 07:31:27;;;;;;;3.95;2.50;;;;;;;9.14;82.25;98344.97;4995582;28;20413;-79
2022/12/11 07:33:57;;;;;;;4.40;2.55;;;;;;;9.14;82.41;98350.28;4994959;28;20552;-78
2022/12/11 07:36:26;;;;;;;4.28;2.47;;;;;;;9.14;82.15;98350.28;4995149;28;20553;-79
2022/12/11 07:38:55;;;;;;;4.78;2.42;;;;;;;9.14;82.11;98366.25;4995096;28;20054;-77
2022/12/11 07:41:26;;;;;;;5.00;2.70;;;;;;;9.15;82.01;98356.44;4994817;28;20066;-76
2022/12/11 07:43:55;;;;;;;4.32;2.50;;;;;;;9.15;82.07;98367.09;4994734;28;20096;-76
2022/12/11 07:46:25;;;;;;;4.45;2.50;;;;;;;9.14;82.16;98368.06;5000152;28;20052;-77
2022/12/11 07:48:53;;;;;;;4.10;2.25;;;;;;;9.14;81.92;98368.91;5014685;28;20050;-80
2022/12/11 07:51:26;;;;;;;4.30;2.30;;;;;;;9.14;82.02;98368.91;5014235;28;20038;-76
2022/12/11 07:53:58;;;;;;;4.28;2.33;;;;;;;9.12;81.99;98384.16;5014475;28;20459;-76
2022/12/11 07:56:28;;;;;;;4.75;2.75;;;;;;;9.13;82.03;98380.53;5005435;28;20038;-76
2022/12/11 07:58:59;;;;;;;5.82;2.50;;;;;;;9.12;81.93;98386.81;5014431;28;20038;-79
2022/12/11 08:01:29;;;;;;;5.20;2.40;;;;;;;9.12;81.88;98400.13;5014293;28;20472;-78
2022/12/11 08:03:57;;;;;;;4.95;2.30;;;;;;;9.13;81.65;98407.13;5014378;28;20046;-77
2022/12/11 08:06:28;;;;;;;4.38;2.40;;;;;;;9.11;81.88;98403.75;5013750;28;20046;-77
2022/12/11 08:08:57;;;;;;;5.65;2.60;;;;;;;9.12;81.89;98416.06;5010103;28;20046;-78
2022/12/11 08:11:28;;;;;;;5.25;2.67;;;;;;;9.10;81.90;98412.72;5014026;28;20412;-78
2022/12/11 08:13:56;;;;;;;4.20;2.40;;;;;;;9.12;81.81;98412.56;5014278;28;20082;-78
2022/12/11 08:16:24;;;;;;;4.80;2.40;;;;;;;9.09;81.97;98421.66;5008779;28;20042;-77
2022/12/11 08:18:53;;;;;;;5.05;2.50;;;;;;;9.11;81.90;98424.19;5013625;28;20058;-78
2022/12/11 08:21:23;;;;;;;4.60;2.58;;;;;;;9.10;81.70;98422.50;4979656;28;20082;-77
2022/12/11 08:23:52;;;;;;;4.75;2.55;;;;;;;9.10;81.65;98428.66;4976896;28;20055;-77
2022/12/11 08:26:23;;;;;;;4.43;2.22;;;;;;;9.07;81.61;98428.94;4994213;28;20046;-77
2022/12/11 08:28:53;;;;;;;4.57;2.40;;;;;;;9.10;81.69;98427.81;5005615;28;20088;-79
2022/12/11 08:31:22;;;;;;;5.55;2.80;;;;;;;9.09;81.71;98434.97;5013766;28;20213;-79
2022/12/11 08:33:51;;;;;;;5.95;2.80;;;;;;;9.10;81.51;98443.78;5016136;28;20077;-76
2022/12/11 08:36:21;;;;;;;4.60;2.50;;;;;;;9.09;81.55;98442.09;5013500;28;20501;-78
2022/12/11 08:38:50;;;;;;;5.07;2.40;;;;;;;9.08;81.57;98433.28;5014315;28;20128;-77
2022/12/11 08:41:20;;;;;;;4.70;2.60;;;;;;;9.09;81.64;98432.31;5013565;28;20064;-78
2022/12/11 08:43:51;;;;;;;5.00;2.40;;;;;;;9.08;81.50;98448.38;5013492;28;20042;-78
2022/12/11 08:46:22;;;;;;;4.60;2.38;;;;;;;9.08;81.33;98454.56;5013801;28;20042;-78
2022/12/11 08:48:51;;;;;;;4.43;2.30;;;;;;;9.08;81.53;98461.69;4996250;28;20054;-77
2022/12/11 08:51:21;;;;;;;4.65;2.40;;;;;;;9.07;81.60;98471.47;4996704;28;20086;-77
2022/12/11 08:53:50;;;;;;;5.15;2.55;;;;;;;9.06;81.32;98466.25;5013204;28;20493;-77
2022/12/11 08:56:20;;;;;;;4.18;2.40;;;;;;;9.06;81.38;98475.09;5013319;28;20038;-78
2022/12/11 08:58:48;;;;;;;4.47;2.53;;;;;;;9.07;81.48;98481.25;5013423;28;20046;-77
2022/12/11 09:01:20;;;;;;;4.00;2.28;;;;;;;9.06;81.39;98479.56;5007564;28;20046;-77
2022/12/11 09:03:51;;;;;;;5.00;2.50;;;;;;;9.02;81.34;98480.78;4997542;28;20042;-77
2022/12/11 09:06:21;;;;;;;4.38;2.22;;;;;;;9.03;81.48;98491.31;5005648;28;20500;-78
2022/12/11 09:08:51;;;;;;;3.60;2.35;;;;;;;9.03;81.42;98488.63;4993397;28;20046;-78
2022/12/11 09:11:22;;;;;;;4.80;2.50;;;;;;;9.03;81.42;98501.94;5013821;28;20124;-76
2022/12/11 09:13:51;;;;;;;4.88;2.35;;;;;;;9.01;81.43;98493.25;4987798;28;20097;-76
2022/12/11 09:16:21;;;;;;;3.83;2.22;;;;;;;9.03;81.06;98512.56;5000939;28;20117;-75
2022/12/11 09:18:52;;;;;;;4.55;2.40;;;;;;;9.02;81.02;98504.72;4997798;28;20046;-77
2022/12/11 09:21:22;;;;;;;4.93;2.55;;;;;;;9.00;81.09;98494.22;4997853;28;20080;-77
2022/12/11 09:23:53;;;;;;;4.43;2.05;;;;;;;8.99;80.92;98489.88;4997695;28;20047;-78
2022/12/11 09:26:22;;;;;;;7.07;2.88;;;;;;;9.07;82.88;98489.22;4997121;28;20050;-77
2022/12/11 09:28:52;;;;;;;4.97;2.20;;;;;;;9.22;85.02;98477.34;4997169;28;20050;-77
2022/12/11 09:31:22;;;;;;;8.05;2.33;;;;;;;9.31;84.45;98494.34;4998182;28;20077;-76
2022/12/11 09:33:55;;;;;;;22.75;3.30;;;;;;;9.45;85.09;98496.69;4997540;28;20054;-77
2022/12/11 09:36:24;;;;;;;9.10;3.10;;;;;;;9.54;85.75;98492.44;5001437;28;20042;-76
2022/12/11 09:38:52;;;;;;;11.77;2.70;;;;;;;9.75;86.77;98496.81;5017083;28;20077;-78
2022/12/11 09:41:35;;;;;;;11.63;3.03;;;;;;;9.78;85.37;98497.53;5016383;28;20428;-78
2022/12/11 09:44:19;;;;;;;12.05;2.92;;;;;;;9.76;84.65;98505.66;5016953;28;20046;-76
2022/12/11 09:46:48;;;;;;;10.85;2.35;;;;;;;9.69;83.95;98500.00;5016648;28;20072;-76
2022/12/11 09:49:25;;;;;;;10.68;2.50;;;;;;;9.63;82.49;98500.50;5016255;28;20132;-79
2022/12/11 09:52:03;;;;;;;11.02;2.47;;;;;;;9.57;82.42;98494.88;5005481;28;20049;-78
2022/12/11 09:54:32;;;;;;;435.02;59.65;;;;;;;9.79;87.36;98499.22;5013551;28;20484;-78
2022/12/11 09:57:13;;;;;;;386.55;50.85;;;;;;;10.01;87.77;98489.25;5016180;28;20077;-78
2022/12/11 09:59:58;;;;;;;327.35;45.05;;;;;;;10.04;86.74;98477.50;5016527;28;20400;-77
2022/12/11 10:02:43;;;;;;;398.77;52.90;;;;;;;10.12;86.77;98495.47;5016503;28;20129;-78
2022/12/11 10:05:21;;;;;;;425.08;59.47;;;;;;;10.19;87.60;98480.66;5016409;28;20448;-77
2022/12/11 10:07:55;;;;;;;398.58;51.55;;;;;;;10.26;88.13;98468.53;5015864;28;20076;-78
2022/12/11 10:10:35;;;;;;;304.25;42.70;;;;;;;10.25;86.63;98469.50;4992644;28;20527;-80
2022/12/11 10:13:11;;;;;;;355.17;48.45;;;;;;;10.20;85.75;98472.53;4996505;28;20046;-78
2022/12/11 10:15:43;;;;;;;294.08;44.35;;;;;;;10.15;85.24;98465.94;4979177;28;20508;-79
2022/12/11 10:18:16;;;;;;;272.83;38.78;;;;;;;10.12;84.90;98480.34;4996539;28;20137;-77
2022/12/11 10:20:46;;;;;;;271.23;39.85;;;;;;;10.12;85.09;98499.00;4979336;28;20137;-78
2022/12/11 10:23:18;;;;;;;252.30;36.67;;;;;;;10.10;84.63;98498.28;4996611;28;20050;-78
2022/12/11 10:25:52;;;;;;;236.60;35.85;;;;;;;10.05;83.27;98492.53;4978935;28;20046;-77
2022/12/11 10:28:21;;;;;;;259.50;39.00;;;;;;;10.00;83.57;98484.06;4997202;28;20050;-77
2022/12/11 10:30:57;;;;;;;261.85;36.65;;;;;;;9.95;83.34;98495.13;4996204;28;20042;-80
2022/12/11 10:33:34;;;;;;;232.23;34.83;;;;;;;9.93;83.13;98509.53;4996476;28;20076;-78
2022/12/11 10:36:07;;;;;;;198.50;31.67;;;;;;;9.88;83.06;98509.94;4996271;28;20038;-79
2022/12/11 10:38:42;;;;;;;188.20;31.02;;;;;;;9.85;82.80;98509.34;4978772;28;20058;-77
2022/12/11 10:41:12;;;;;;;176.70;27.95;;;;;;;9.82;83.02;98498.94;4996014;28;20097;-78
2022/12/11 10:43:43;;;;;;;189.23;28.40;;;;;;;9.80;82.92;98506.22;4996014;28;20042;-79
2022/12/11 10:46:16;;;;;;;155.07;27.08;;;;;;;9.77;82.84;98512.66;4996144;28;20065;-79
2022/12/11 10:48:49;;;;;;;158.98;26.30;;;;;;;9.75;82.63;98523.44;4995942;28;20059;-78
2022/12/11 10:51:19;;;;;;;135.52;25.30;;;;;;;9.72;82.77;98534.34;4995644;28;20050;-78
2022/12/11 10:53:51;;;;;;;154.00;25.27;;;;;;;9.77;82.46;98538.44;5000393;28;20120;-77
2022/12/11 10:56:26;;;;;;;144.30;25.13;;;;;;;9.77;82.35;98541.94;5001500;28;20069;-79
2022/12/11 10:58:56;;;;;;;127.95;22.05;;;;;;;9.74;82.14;98537.69;5015558;28;20081;-80
2022/12/11 11:01:27;;;;;;;125.40;23.95;;;;;;;9.73;82.05;98533.34;5015617;28;20045;-78
2022/12/11 11:03:59;;;;;;;117.15;22.40;;;;;;;9.71;82.16;98529.13;5015234;28;20440;-77
2022/12/11 11:06:29;;;;;;;112.73;20.20;;;;;;;9.65;82.54;98530.53;4997863;28;20104;-76
2022/12/11 11:08:59;;;;;;;106.32;20.65;;;;;;;9.64;82.30;98543.94;5014874;28;20105;-80
2022/12/11 11:11:31;;;;;;;98.22;20.27;;;;;;;9.58;82.57;98528.50;4997934;28;20046;-78
2022/12/11 11:14:15;;;;;;;105.95;21.20;;;;;;;9.62;82.25;98535.22;5015443;28;20065;-77
2022/12/11 11:16:46;;;;;;;122.82;19.90;;;;;;;9.62;82.45;98530.75;5017305;28;20045;-77
2022/12/11 11:19:19;;;;;;;112.47;20.98;;;;;;;9.61;82.50;98529.06;5015026;28;20050;-78
2022/12/11 11:21:52;;;;;;;110.45;19.08;;;;;;;9.58;82.74;98521.34;4981054;28;20050;-78
2022/12/11 11:24:29;;;;;;;;;;;;;;;9.57;83.00;98524.97;4995922;28;20121;-79
2022/12/11 11:26:58;;;;;;;107.20;19.02;;;;;;;9.56;82.79;98517.97;4994982;28;19968;-77
2022/12/11 11:29:45;;;;;;;100.65;18.65;;;;;;;9.55;82.73;98521.56;4994807;28;20097;-79
2022/12/11 11:32:24;;;;;;;92.40;17.45;;;;;;;9.56;82.68;98512.66;4980726;28;20046;-78
2022/12/11 11:34:52;;;;;;;84.50;17.33;;;;;;;9.56;82.81;98533.94;5003319;28;20038;-80
2022/12/11 11:37:31;;;;;;;98.75;18.55;;;;;;;9.54;82.78;98535.88;4988234;28;20042;-78
2022/12/11 11:40:08;;;;;;;92.22;18.05;;;;;;;9.56;82.64;98535.75;5011860;28;20104;-78
2022/12/11 11:42:45;;;;;;;100.88;17.63;;;;;;;9.56;82.51;98543.75;5014594;28;20516;-78
2022/12/11 11:45:19;;;;;;;96.07;18.23;;;;;;;9.55;82.47;98550.84;5014325;28;20444;-79
2022/12/11 11:47:55;;;;;;;104.03;18.00;;;;;;;9.55;82.53;98550.84;5014173;28;20038;-79
2022/12/11 11:50:31;;;;;;;94.60;17.13;;;;;;;9.55;82.48;98558.00;5014303;28;20054;-81
2022/12/11 11:53:17;;;;;;;113.63;17.77;;;;;;;9.57;82.56;98559.59;5013932;28;20409;-78
2022/12/11 11:55:54;;;;;;;106.93;18.42;;;;;;;9.56;82.62;98565.88;5014246;28;20042;-79
2022/12/11 11:58:26;;;;;;;96.65;17.27;;;;;;;9.55;82.94;98566.84;5014255;28;20057;-81
2022/12/11 12:00:55;;;;;;;94.20;17.70;;;;;;;9.52;83.17;98553.78;4997168;28;20061;-80
2022/12/11 12:03:24;;;;;;;97.35;17.85;;;;;;;9.52;83.11;98567.09;5013884;28;20046;-80